Weather at Zorritos Airport

Public forecast

Using degrees Celsius for public forecast. Weather courtesy of forecast.io.

Closest aviation weather report (METAR) to Zorritos Airport

Report is more than 6 hours old.

Closest report is Capitan FAP Pedro Canga Rodriguez Airport, 17.8 nm (33.0 km) ENE. Retrieved 2020/11/29 22:00 UTC (9 hours ago):

SPME 292200Z /////KT 9999 BKN015 25/20 Q1009 RMK BIRD HAZARD RWY 32/14 TX268 PP000

Closest aviation forecast (TAF) to Zorritos Airport

Forecast is more than 12 hours old.

Closest forecast is Capitan FAP Pedro Canga Rodriguez Airport, 17.8 nm (33.0 km) ENE. Retrieved 2020/11/29 18:33 UTC (13 hours ago):

TAF SPME 291700Z 2918/3018 35011KT 9999 BKN014 BKN030 TX28/2919Z TN22/3011Z BECMG 3001/3003 29003KT OVC012 TEMPO 3014/3016 03005KT FM301630 33008KT BKN014